createdAt,value
2018-02-25T00:00:52.540Z,54.38
2018-02-25T00:01:52.308Z,54.57
2018-02-25T00:02:52.288Z,54.75
2018-02-25T00:03:52.305Z,54.85
2018-02-25T00:04:52.248Z,54.85
2018-02-25T00:05:52.227Z,54.10
2018-02-25T00:06:52.238Z,54.85
2018-02-25T00:07:52.189Z,54.85
2018-02-25T00:08:52.168Z,55.04
2018-02-25T00:09:52.160Z,54.94
2018-02-25T00:10:52.127Z,54.85
2018-02-25T00:11:52.106Z,55.13
2018-02-25T00:12:52.086Z,54.66
2018-02-25T00:13:52.064Z,55.13
2018-02-25T00:14:52.046Z,55.70
2018-02-25T00:15:52.025Z,55.61
2018-02-25T00:16:52.006Z,55.70
2018-02-25T00:17:51.984Z,55.98
2018-02-25T00:18:52.091Z,55.23
2018-02-25T00:19:51.948Z,55.42
2018-02-25T00:20:51.924Z,55.80
2018-02-25T00:21:51.903Z,55.51
2018-02-25T00:22:51.885Z,55.51
2018-02-25T00:23:51.865Z,55.80
2018-02-25T00:24:51.857Z,55.70
2018-02-25T00:25:51.833Z,56.46
2018-02-25T00:26:51.804Z,56.36
2018-02-25T00:27:51.811Z,56.36
2018-02-25T00:28:51.767Z,56.17
2018-02-25T00:29:51.740Z,55.70
2018-02-25T00:30:51.738Z,55.89
2018-02-25T00:31:51.700Z,56.27
2018-02-25T00:32:51.681Z,56.65
2018-02-25T00:33:51.663Z,55.98
2018-02-25T00:34:51.639Z,56.36
2018-02-25T00:35:51.619Z,56.74
2018-02-25T00:36:51.600Z,57.40
2018-02-25T00:37:51.577Z,57.12
2018-02-25T00:38:51.558Z,57.03
2018-02-25T00:39:51.538Z,57.03
2018-02-25T00:40:51.531Z,57.40
2018-02-25T00:41:51.500Z,56.84
2018-02-25T00:42:51.503Z,57.21
2018-02-25T00:43:51.459Z,57.31
2018-02-25T00:44:51.438Z,57.03
2018-02-25T00:45:51.432Z,57.21
2018-02-25T00:46:51.395Z,57.31
2018-02-25T00:47:51.376Z,57.40
2018-02-25T00:48:51.356Z,56.93
2018-02-25T00:49:51.334Z,57.21
2018-02-25T00:50:51.313Z,57.50
2018-02-25T00:51:51.294Z,56.65
2018-02-25T00:52:51.273Z,57.03
2018-02-25T00:53:51.256Z,57.40
2018-02-25T00:54:51.232Z,57.50
2018-02-25T00:55:51.211Z,57.31
2018-02-25T00:56:51.191Z,57.31
2018-02-25T00:57:51.170Z,57.68
2018-02-25T00:58:51.149Z,58.06
2018-02-25T00:59:51.129Z,58.25
2018-02-25T01:00:51.108Z,57.78
2018-02-25T01:01:51.129Z,57.87
2018-02-25T01:02:51.067Z,57.59
2018-02-25T01:03:51.047Z,57.78
2018-02-25T01:04:51.027Z,58.34
2018-02-25T01:05:51.006Z,58.15
2018-02-25T01:06:50.989Z,57.87
2018-02-25T01:07:50.968Z,57.59
2018-02-25T01:08:50.949Z,57.87
2018-02-25T01:09:50.922Z,58.15
2018-02-25T01:10:50.914Z,58.34
2018-02-25T01:11:50.882Z,57.78
2018-02-25T01:12:50.880Z,58.15
2018-02-25T01:13:50.848Z,58.34
2018-02-25T01:14:50.854Z,58.15
2018-02-25T01:15:50.814Z,58.15
2018-02-25T01:16:50.779Z,57.78
2018-02-25T01:17:50.814Z,58.06
2018-02-25T01:18:50.739Z,58.44
2018-02-25T01:19:50.717Z,58.25
2018-02-25T01:20:50.741Z,58.72
2018-02-25T01:21:50.675Z,58.25
2018-02-25T01:22:50.655Z,58.03
2018-02-25T01:23:50.674Z,58.15
2018-02-25T01:24:50.613Z,57.87
2018-02-25T01:25:50.592Z,58.25
2018-02-25T01:26:50.595Z,57.78
2018-02-25T01:27:50.551Z,57.78
2018-02-25T01:28:50.541Z,57.87
2018-02-25T01:29:50.518Z,58.06
2018-02-25T01:30:50.505Z,57.97
2018-02-25T01:31:50.468Z,57.40
2018-02-25T01:32:50.494Z,58.34
2018-02-25T01:33:50.432Z,58.06
2018-02-25T01:34:50.409Z,58.06
2018-02-25T01:35:50.592Z,58.15
2018-02-25T01:36:50.364Z,57.50
2018-02-25T01:37:50.343Z,57.50
2018-02-25T01:38:50.360Z,57.40
2018-02-25T01:39:50.301Z,57.56
2018-02-25T01:40:50.280Z,58.15
2018-02-25T01:41:50.283Z,57.94
2018-02-25T01:42:50.240Z,58.12
2018-02-25T01:43:50.218Z,58.31
2018-02-25T01:44:50.211Z,58.22
2018-02-25T01:45:50.179Z,58.41
2018-02-25T01:46:50.160Z,58.31
2018-02-25T01:47:50.137Z,57.94
2018-02-25T01:48:50.113Z,58.12
2018-02-25T01:49:50.092Z,58.12
2018-02-25T01:50:50.075Z,58.12
2018-02-25T01:51:50.051Z,57.84
2018-02-25T01:52:50.030Z,58.50
2018-02-25T01:53:50.009Z,58.31
2018-02-25T01:54:49.989Z,59.07
2018-02-25T01:55:49.973Z,58.22
2018-02-25T01:56:49.950Z,58.12
2018-02-25T01:57:49.925Z,58.79
2018-02-25T01:58:49.904Z,58.98
2018-02-25T01:59:49.883Z,58.60
2018-02-25T02:00:49.863Z,58.41
2018-02-25T02:01:49.841Z,58.41
2018-02-25T02:02:49.821Z,58.79
2018-02-25T02:03:49.820Z,58.69
2018-02-25T02:04:49.790Z,59.07
2018-02-25T02:05:49.767Z,58.98
2018-02-25T02:06:49.755Z,58.88
2018-02-25T02:07:49.717Z,59.26
2018-02-25T02:08:49.752Z,59.17
2018-02-25T02:09:49.680Z,59.83
2018-02-25T02:10:49.653Z,59.64
2018-02-25T02:11:49.680Z,59.73
2018-02-25T02:12:49.612Z,59.73
2018-02-25T02:13:49.590Z,60.11
2018-02-25T02:14:49.611Z,60.58
2018-02-25T02:15:49.551Z,60.39
2018-02-25T02:16:49.529Z,60.21
2018-02-25T02:17:49.536Z,60.49
2018-02-25T02:18:49.487Z,60.68
2018-02-25T02:19:49.464Z,60.77
2018-02-25T02:20:49.459Z,60.30
2018-02-25T02:21:49.444Z,60.49
2018-02-25T02:22:49.406Z,60.68
2018-02-25T02:23:49.389Z,61.15
2018-02-25T02:24:49.372Z,60.58
2018-02-25T02:25:49.339Z,60.58
2018-02-25T02:26:49.373Z,60.49
2018-02-25T02:27:49.301Z,60.49
2018-02-25T02:28:49.276Z,60.68
2018-02-25T02:29:49.458Z,60.58
2018-02-25T02:30:49.235Z,60.86
2018-02-25T02:31:49.213Z,60.77
2018-02-25T02:32:49.224Z,60.11
2018-02-25T02:33:49.170Z,60.39
2018-02-25T02:34:49.149Z,60.58
2018-02-25T02:35:49.150Z,60.49
2018-02-25T02:36:49.107Z,60.77
2018-02-25T02:37:49.140Z,60.11
2018-02-25T02:38:49.082Z,60.30
2018-02-25T02:39:49.044Z,60.77
2018-02-25T02:40:49.024Z,60.96
2018-02-25T02:41:49.002Z,60.58
2018-02-25T02:42:48.979Z,60.39
2018-02-25T02:43:48.969Z,60.86
2018-02-25T02:44:48.939Z,60.86
2018-02-25T02:45:48.917Z,60.86
2018-02-25T02:46:48.896Z,60.96
2018-02-25T02:47:48.874Z,60.77
2018-02-25T02:48:48.853Z,60.96
2018-02-25T02:49:48.830Z,60.77
2018-02-25T02:50:48.809Z,60.96
2018-02-25T02:51:48.789Z,60.86
2018-02-25T02:52:48.769Z,61.24
2018-02-25T02:53:48.745Z,60.77
2018-02-25T02:54:48.724Z,61.15
2018-02-25T02:55:48.704Z,61.43
2018-02-25T02:56:48.682Z,62.09
2018-02-25T02:57:48.665Z,61.71
2018-02-25T02:58:48.642Z,61.80
2018-02-25T02:59:48.651Z,61.52
2018-02-25T03:00:48.605Z,60.96
2018-02-25T03:01:48.585Z,61.05
2018-02-25T03:02:48.572Z,61.33
2018-02-25T03:03:48.532Z,61.80
2018-02-25T03:04:48.567Z,61.61
2018-02-25T03:05:48.499Z,61.71
2018-02-25T03:06:48.469Z,61.61
2018-02-25T03:07:48.498Z,61.71
2018-02-25T03:08:48.425Z,61.52
2018-02-25T03:09:48.404Z,61.99
2018-02-25T03:10:48.422Z,62.28
2018-02-25T03:11:48.361Z,61.99
2018-02-25T03:12:48.340Z,62.28
2018-02-25T03:13:48.351Z,62.37
2018-02-25T03:14:48.298Z,62.18
2018-02-25T03:15:48.276Z,62.28
2018-02-25T03:16:48.277Z,62.18
2018-02-25T03:17:48.232Z,62.28
2018-02-25T03:18:48.225Z,62.18
2018-02-25T03:19:48.200Z,62.37
2018-02-25T03:20:48.191Z,62.18
2018-02-25T03:21:48.151Z,62.09
2018-02-25T03:22:48.131Z,62.28
2018-02-25T03:23:48.114Z,61.99
2018-02-25T03:24:48.082Z,61.61
2018-02-25T03:25:48.276Z,61.24
2018-02-25T03:26:48.042Z,62.18
2018-02-25T03:27:48.017Z,62.09
2018-02-25T03:28:48.200Z,61.90
2018-02-25T03:29:47.973Z,62.56
2018-02-25T03:30:47.953Z,62.56
2018-02-25T03:31:47.971Z,61.99
2018-02-25T03:32:47.908Z,61.80
2018-02-25T03:33:47.887Z,61.71
2018-02-25T03:34:47.893Z,62.28
2018-02-25T03:35:47.844Z,62.47
2018-02-25T03:36:47.822Z,62.09
2018-02-25T03:37:47.822Z,62.18
2018-02-25T03:38:47.778Z,62.18
2018-02-25T03:39:47.756Z,62.18
2018-02-25T03:40:47.749Z,61.71
2018-02-25T03:41:47.712Z,62.37
2018-02-25T03:42:47.691Z,62.28
2018-02-25T03:43:47.700Z,62.25
2018-02-25T03:44:47.648Z,62.18
2018-02-25T03:45:47.628Z,62.72
2018-02-25T03:46:47.626Z,62.94
2018-02-25T03:47:47.582Z,62.66
2018-02-25T03:48:47.561Z,62.28
2018-02-25T03:49:47.538Z,62.06
2018-02-25T03:50:47.519Z,61.99
2018-02-25T03:51:47.495Z,62.28
2018-02-25T03:52:47.473Z,62.72
2018-02-25T03:53:47.452Z,62.72
2018-02-25T03:54:47.430Z,62.62
2018-02-25T03:55:47.408Z,62.72
2018-02-25T03:56:47.387Z,62.43
2018-02-25T03:57:47.364Z,62.62
2018-02-25T03:58:47.342Z,62.43
2018-02-25T03:59:47.321Z,62.72
2018-02-25T04:00:47.299Z,62.53
2018-02-25T04:01:47.277Z,62.53
2018-02-25T04:02:47.255Z,62.81
2018-02-25T04:03:47.257Z,62.62
2018-02-25T04:04:47.223Z,62.53
2018-02-25T04:05:47.189Z,62.53
2018-02-25T04:06:47.190Z,62.72
2018-02-25T04:07:47.149Z,62.62
2018-02-25T04:08:47.347Z,63.00
2018-02-25T04:09:47.115Z,62.91
2018-02-25T04:10:47.080Z,62.72
2018-02-25T04:11:47.089Z,62.62
2018-02-25T04:12:47.041Z,62.34
2018-02-25T04:13:47.015Z,62.62
2018-02-25T04:14:47.055Z,62.43
2018-02-25T04:15:46.974Z,62.34
2018-02-25T04:16:46.949Z,62.53
2018-02-25T04:17:46.974Z,62.62
2018-02-25T04:18:46.905Z,63.00
2018-02-25T04:19:46.885Z,63.00
2018-02-25T04:20:46.894Z,63.00
2018-02-25T04:21:46.844Z,62.81
2018-02-25T04:22:46.818Z,62.62
2018-02-25T04:23:46.825Z,62.72
2018-02-25T04:24:46.774Z,62.43
2018-02-25T04:25:46.751Z,62.72
2018-02-25T04:26:46.745Z,62.53
2018-02-25T04:27:46.708Z,62.72
2018-02-25T04:28:46.703Z,62.62
2018-02-25T04:29:46.671Z,62.72
2018-02-25T04:30:46.660Z,63.38
2018-02-25T04:31:46.620Z,62.53
2018-02-25T04:32:46.615Z,62.43
2018-02-25T04:33:46.586Z,62.15
2018-02-25T04:34:46.553Z,61.96
2018-02-25T04:35:46.746Z,62.34
2018-02-25T04:36:46.511Z,61.96
2018-02-25T04:37:46.486Z,62.06
2018-02-25T04:38:46.671Z,62.06
2018-02-25T04:39:46.442Z,62.25
2018-02-25T04:40:46.421Z,62.15
2018-02-25T04:41:46.442Z,62.15
2018-02-25T04:42:46.378Z,62.15
2018-02-25T04:43:46.354Z,62.62
2018-02-25T04:44:46.357Z,62.15
2018-02-25T04:45:46.309Z,61.77
2018-02-25T04:46:46.287Z,61.49
2018-02-25T04:47:46.291Z,61.68
2018-02-25T04:48:46.244Z,61.58
2018-02-25T04:49:46.220Z,61.49
2018-02-25T04:50:46.218Z,61.21
2018-02-25T04:51:46.176Z,61.21
2018-02-25T04:52:46.155Z,61.87
2018-02-25T04:53:46.140Z,61.49
2018-02-25T04:54:46.110Z,61.77
2018-02-25T04:55:46.088Z,61.77
2018-02-25T04:56:46.068Z,61.77
2018-02-25T04:57:46.044Z,61.30
2018-02-25T04:58:46.021Z,61.11
2018-02-25T04:59:46.000Z,61.77
2018-02-25T05:00:45.977Z,61.77
2018-02-25T05:01:45.955Z,61.58
2018-02-25T05:02:45.933Z,61.02
2018-02-25T05:03:45.916Z,61.21
2018-02-25T05:04:45.889Z,61.11
2018-02-25T05:05:45.866Z,60.93
2018-02-25T05:06:45.844Z,61.02
2018-02-25T05:07:45.822Z,60.83
2018-02-25T05:08:45.800Z,60.74
2018-02-25T05:09:45.777Z,60.27
2018-02-25T05:10:45.758Z,61.21
2018-02-25T05:11:45.733Z,61.11
2018-02-25T05:12:45.711Z,61.30
2018-02-25T05:13:45.688Z,61.68
2018-02-25T05:14:45.666Z,61.58
2018-02-25T05:15:45.645Z,61.87
2018-02-25T05:16:45.623Z,62.15
2018-02-25T05:17:45.599Z,62.43
2018-02-25T05:18:45.588Z,62.53
2018-02-25T05:19:45.556Z,62.62
2018-02-25T05:20:45.554Z,62.62
2018-02-25T05:21:45.522Z,62.72
2018-02-25T05:22:45.489Z,62.53
2018-02-25T05:23:45.486Z,62.72
2018-02-25T05:24:45.449Z,62.81
2018-02-25T05:25:45.467Z,62.06
2018-02-25T05:26:45.412Z,62.43
2018-02-25T05:27:45.383Z,62.34
2018-02-25T05:28:45.573Z,61.96
2018-02-25T05:29:45.340Z,61.77
2018-02-25T05:30:45.312Z,61.77
2018-02-25T05:31:45.500Z,61.68
2018-02-25T05:32:45.268Z,62.06
2018-02-25T05:33:45.245Z,62.34
2018-02-25T05:34:45.265Z,62.43
2018-02-25T05:35:45.200Z,62.72
2018-02-25T05:36:45.178Z,62.34
2018-02-25T05:37:45.192Z,62.53
2018-02-25T05:38:45.134Z,62.34
2018-02-25T05:39:45.112Z,62.53
2018-02-25T05:40:45.125Z,62.43
2018-02-25T05:41:45.066Z,63.19
2018-02-25T05:42:45.045Z,63.10
2018-02-25T05:43:45.047Z,63.19
2018-02-25T05:44:45.001Z,62.25
2018-02-25T05:45:44.977Z,62.53
2018-02-25T05:46:44.972Z,62.34
2018-02-25T05:47:44.953Z,62.25
2018-02-25T05:48:44.920Z,62.72
2018-02-25T05:49:44.899Z,62.53
2018-02-25T05:50:44.889Z,62.72
2018-02-25T05:51:44.847Z,62.53
2018-02-25T05:52:44.826Z,62.43
2018-02-25T05:53:44.818Z,62.34
2018-02-25T05:54:44.799Z,62.06
2018-02-25T05:55:44.780Z,62.15
2018-02-25T05:56:44.760Z,61.58
2018-02-25T05:57:44.709Z,61.68
2018-02-25T05:58:44.699Z,61.77
2018-02-25T05:59:44.665Z,61.77
2018-02-25T06:00:44.643Z,61.68
2018-02-25T06:01:44.619Z,61.58
2018-02-25T06:02:44.605Z,61.49
2018-02-25T06:03:44.576Z,61.68
2018-02-25T06:04:44.555Z,61.77
2018-02-25T06:05:44.529Z,61.11
2018-02-25T06:06:44.511Z,61.49
2018-02-25T06:07:44.485Z,61.11
2018-02-25T06:08:44.462Z,61.68
2018-02-25T06:09:44.439Z,61.68
2018-02-25T06:10:44.417Z,61.68
2018-02-25T06:11:44.395Z,61.58
2018-02-25T06:12:44.372Z,62.06
2018-02-25T06:13:44.349Z,61.77
2018-02-25T06:14:44.333Z,61.77
2018-02-25T06:15:44.304Z,61.68
2018-02-25T06:16:44.283Z,61.68
2018-02-25T06:17:44.263Z,61.68
2018-02-25T06:18:44.237Z,61.49
2018-02-25T06:19:44.217Z,61.58
2018-02-25T06:20:44.193Z,61.68
2018-02-25T06:21:44.169Z,61.58
2018-02-25T06:22:44.147Z,61.58
2018-02-25T06:23:44.125Z,61.77
2018-02-25T06:24:44.109Z,61.68
2018-02-25T06:25:44.107Z,61.58
2018-02-25T06:26:44.057Z,61.87
2018-02-25T06:28:44.012Z,61.77
2018-02-25T06:29:43.991Z,61.58
2018-02-25T06:30:43.972Z,62.06
2018-02-25T06:31:43.949Z,61.77
2018-02-25T06:32:43.926Z,61.77
2018-02-25T06:33:43.899Z,61.58
2018-02-25T06:34:43.876Z,61.68
2018-02-25T06:35:43.855Z,61.21
2018-02-25T06:36:43.832Z,61.77
2018-02-25T06:37:43.809Z,61.58
2018-02-25T06:38:43.789Z,61.49
2018-02-25T06:39:43.766Z,61.68
2018-02-25T06:40:43.742Z,61.49
2018-02-25T06:41:43.719Z,61.58
2018-02-25T06:42:43.716Z,61.58
2018-02-25T06:43:43.674Z,61.58
2018-02-25T06:44:43.656Z,61.68
2018-02-25T06:45:43.708Z,61.49
2018-02-25T06:46:43.607Z,61.68
2018-02-25T06:47:43.584Z,61.68
2018-02-25T06:48:43.648Z,61.21
2018-02-25T06:49:43.540Z,61.68
2018-02-25T06:50:43.517Z,61.68
2018-02-25T06:51:43.698Z,61.49
2018-02-25T06:52:43.472Z,61.58
2018-02-25T06:53:43.449Z,62.06
2018-02-25T06:54:43.630Z,61.87
2018-02-25T06:55:43.407Z,62.25
2018-02-25T06:56:43.383Z,62.34
2018-02-25T06:57:43.433Z,62.34
2018-02-25T06:58:43.337Z,61.58
2018-02-25T06:59:43.315Z,60.83
2018-02-25T07:00:43.293Z,61.49
2018-02-25T07:01:43.271Z,61.96
2018-02-25T07:02:43.308Z,61.58
2018-02-25T07:03:43.226Z,61.96
2018-02-25T07:04:43.206Z,61.49
2018-02-25T07:05:43.224Z,61.02
2018-02-25T07:06:43.158Z,61.02
2018-02-25T07:07:43.138Z,60.74
2018-02-25T07:08:43.320Z,61.68
2018-02-25T07:09:43.095Z,61.58
2018-02-25T07:10:43.070Z,61.77
2018-02-25T07:11:43.085Z,61.68
2018-02-25T07:12:43.025Z,61.68
2018-02-25T07:13:43.003Z,61.96
2018-02-25T07:14:42.981Z,61.68
2018-02-25T07:15:42.963Z,61.02
2018-02-25T07:16:42.937Z,60.74
2018-02-25T07:17:42.951Z,60.83
2018-02-25T07:18:42.894Z,60.83
2018-02-25T07:19:42.869Z,60.83
2018-02-25T07:20:42.881Z,60.46
2018-02-25T07:21:42.824Z,60.83
2018-02-25T07:22:42.803Z,60.83
2018-02-25T07:23:42.827Z,60.83
2018-02-25T07:24:42.761Z,60.83
2018-02-25T07:25:42.735Z,60.08
2018-02-25T07:26:42.795Z,60.36
2018-02-25T07:27:42.692Z,60.17
2018-02-25T07:28:42.674Z,60.17
2018-02-25T07:29:42.648Z,60.08
2018-02-25T07:30:42.625Z,60.27
2018-02-25T07:31:42.604Z,60.36
2018-02-25T07:32:42.581Z,59.89
2018-02-25T07:33:42.560Z,59.89
2018-02-25T07:34:42.537Z,59.42
2018-02-25T07:35:42.516Z,59.33
2018-02-25T07:36:42.496Z,59.33
2018-02-25T07:37:42.472Z,59.42
2018-02-25T07:38:42.450Z,59.23
2018-02-25T07:39:42.430Z,59.61
2018-02-25T07:40:42.468Z,59.14
2018-02-25T07:41:42.384Z,59.51
2018-02-25T07:42:42.367Z,58.95
2018-02-25T07:43:42.431Z,58.19
2018-02-25T07:44:42.320Z,58.41
2018-02-25T07:45:42.300Z,57.62
2018-02-25T07:46:42.480Z,58.19
2018-02-25T07:47:42.261Z,57.56
2018-02-25T07:48:42.235Z,57.65
2018-02-25T07:50:42.192Z,57.28
2018-02-25T07:51:42.171Z,57.37
2018-02-25T07:52:42.203Z,57.37
2018-02-25T07:53:42.133Z,57.18
2018-02-25T07:54:42.107Z,57.09
2018-02-25T07:55:42.138Z,57.28
2018-02-25T07:56:42.067Z,56.15
2018-02-25T07:57:42.050Z,56.24
2018-02-25T07:58:42.070Z,56.43
2018-02-25T07:59:42.011Z,56.34
2018-02-25T08:00:41.993Z,56.05
2018-02-25T08:01:42.072Z,55.39
2018-02-25T08:02:41.951Z,54.82
2018-02-25T08:03:41.934Z,55.01
2018-02-25T08:04:41.972Z,54.38
2018-02-25T08:05:41.904Z,54.57
2018-02-25T08:06:41.885Z,53.72
2018-02-25T08:08:41.852Z,52.87
2018-02-25T08:09:41.837Z,52.49
2018-02-25T08:10:41.854Z,51.92
2018-02-25T08:11:41.807Z,51.92
2018-02-25T08:12:41.794Z,51.83
2018-02-25T08:13:41.783Z,51.73
2018-02-25T08:14:41.770Z,51.73
2018-02-25T08:15:41.752Z,51.64
2018-02-25T08:16:41.734Z,51.73
2018-02-25T08:17:41.722Z,51.07
2018-02-25T08:18:41.709Z,51.10
2018-02-25T08:19:41.692Z,50.82
2018-02-25T08:20:41.679Z,50.06
2018-02-25T08:21:41.665Z,49.87
2018-02-25T08:22:41.652Z,49.21
2018-02-25T08:23:41.641Z,49.11
2018-02-25T08:24:41.720Z,48.46
2018-02-25T08:25:41.614Z,48.83
2018-02-25T08:26:41.602Z,48.36
2018-02-25T08:27:41.799Z,48.27
2018-02-25T08:28:41.577Z,48.67
2018-02-25T08:29:41.565Z,48.01
2018-02-25T08:30:41.595Z,48.01
2018-02-25T08:31:41.541Z,48.01
2018-02-25T08:32:41.531Z,47.34
2018-02-25T08:33:41.557Z,46.50
2018-02-25T08:34:41.508Z,46.28
2018-02-25T08:35:41.496Z,46.56
2018-02-25T08:36:41.546Z,46.94
2018-02-25T08:37:41.473Z,46.94
2018-02-25T08:38:41.461Z,46.85
2018-02-25T08:39:41.450Z,46.94
2018-02-25T08:40:41.440Z,46.97
2018-02-25T08:41:41.663Z,46.37
2018-02-25T08:42:41.420Z,46.19
2018-02-25T08:43:41.406Z,47.04
2018-02-25T08:44:41.456Z,46.75
2018-02-25T08:45:41.383Z,47.06
2018-02-25T08:46:41.372Z,46.78
2018-02-25T08:47:41.402Z,47.16
2018-02-25T08:48:41.352Z,45.93
2018-02-25T08:49:41.340Z,45.64
2018-02-25T08:50:41.354Z,45.83
2018-02-25T08:51:41.319Z,45.93
2018-02-25T08:52:41.309Z,45.17
2018-02-25T08:53:41.302Z,45.08
2018-02-25T08:54:41.288Z,45.55
2018-02-25T08:55:41.278Z,46.02
2018-02-25T08:56:41.268Z,45.45
2018-02-25T08:57:41.257Z,45.55
2018-02-25T08:58:41.249Z,44.98
2018-02-25T08:59:41.237Z,44.79
2018-02-25T09:00:41.450Z,44.04
2018-02-25T09:01:41.218Z,43.95
2018-02-25T09:02:41.208Z,44.23
2018-02-25T09:03:41.251Z,43.95
2018-02-25T09:04:41.190Z,44.32
2018-02-25T09:05:41.178Z,44.06
2018-02-25T09:06:41.209Z,43.77
2018-02-25T09:07:41.160Z,43.87
2018-02-25T09:08:41.151Z,42.55
2018-02-25T09:09:41.142Z,42.74
2018-02-25T09:10:41.131Z,42.64
2018-02-25T09:11:41.126Z,42.83
2018-02-25T09:12:41.122Z,42.93
2018-02-25T09:13:41.104Z,42.17
2018-02-25T09:14:41.099Z,41.89
2018-02-25T09:15:41.088Z,42.36
2018-02-25T09:16:41.079Z,42.74
2018-02-25T09:17:41.273Z,41.91
2018-02-25T09:18:41.061Z,41.41
2018-02-25T09:19:41.053Z,41.13
2018-02-25T09:20:41.093Z,41.51
2018-02-25T09:21:41.038Z,41.41
2018-02-25T09:22:41.030Z,41.89
2018-02-25T09:23:41.041Z,41.89
2018-02-25T09:24:41.010Z,41.98
2018-02-25T09:25:41.001Z,41.51
2018-02-25T09:26:40.992Z,41.53
2018-02-25T09:27:40.989Z,41.34
2018-02-25T09:28:40.977Z,40.39
2018-02-25T09:29:40.968Z,39.83
2018-02-25T09:30:40.963Z,39.36
2018-02-25T09:31:41.158Z,39.73
2018-02-25T09:32:40.946Z,39.45
2018-02-25T09:33:40.938Z,39.26
2018-02-25T09:34:40.975Z,39.45
2018-02-25T09:35:40.923Z,39.54
2018-02-25T09:36:40.916Z,40.01
2018-02-25T09:37:40.934Z,39.47
2018-02-25T09:38:40.901Z,39.18
2018-02-25T09:39:40.897Z,38.62
2018-02-25T09:40:40.891Z,38.14
2018-02-25T09:41:40.882Z,37.76
2018-02-25T09:42:40.873Z,36.63
2018-02-25T09:43:40.880Z,36.23
2018-02-25T09:44:40.865Z,37.08
2018-02-25T09:45:40.933Z,37.46
2018-02-25T09:46:40.847Z,37.74
2018-02-25T09:47:40.839Z,37.74
2018-02-25T09:48:40.888Z,37.38
2018-02-25T09:49:40.825Z,36.71
2018-02-25T09:50:40.819Z,36.90
2018-02-25T09:51:40.833Z,36.33
2018-02-25T09:52:40.809Z,36.80
2018-02-25T09:53:40.798Z,36.71
2018-02-25T09:54:40.791Z,36.80
2018-02-25T09:55:40.816Z,36.42
2018-02-25T09:56:40.777Z,36.61
2018-02-25T09:57:40.769Z,36.61
2018-02-25T09:58:40.766Z,36.23
2018-02-25T09:59:40.828Z,36.04
2018-02-25T10:00:40.796Z,36.14
2018-02-25T10:01:40.746Z,36.04
2018-02-25T10:02:40.732Z,36.71
2018-02-25T10:03:40.756Z,37.18
2018-02-25T10:04:40.719Z,36.80
2018-02-25T10:05:40.714Z,36.33
2018-02-25T10:06:40.909Z,36.23
2018-02-25T10:07:40.701Z,36.33
2018-02-25T10:08:40.690Z,35.19
2018-02-25T10:09:40.724Z,35.10
2018-02-25T10:10:40.675Z,35.10
2018-02-25T10:11:40.668Z,34.92
2018-02-25T10:12:40.661Z,33.60
2018-02-25T10:13:40.654Z,33.77
2018-02-25T10:14:40.651Z,34.06
2018-02-25T10:15:40.645Z,34.26
2018-02-25T10:16:40.635Z,34.17
2018-02-25T10:17:40.703Z,34.07
2018-02-25T10:18:40.619Z,34.36
2018-02-25T10:19:40.613Z,34.55
2018-02-25T10:20:40.652Z,34.63
2018-02-25T10:21:40.603Z,34.72
2018-02-25T10:22:40.592Z,35.47
2018-02-25T10:23:40.587Z,35.38
2018-02-25T10:24:40.582Z,35.28
2018-02-25T10:25:40.569Z,35.66
2018-02-25T10:26:40.562Z,36.90
2018-02-25T10:27:40.555Z,37.19
2018-02-25T10:28:40.603Z,37.01
2018-02-25T10:29:40.546Z,37.21
2018-02-25T10:30:40.534Z,36.83
2018-02-25T10:31:40.732Z,36.83
2018-02-25T10:32:40.523Z,36.36
2018-02-25T10:33:40.519Z,35.60
2018-02-25T10:34:40.548Z,35.43
2018-02-25T10:35:40.512Z,34.96
2018-02-25T10:36:40.504Z,34.48
2018-02-25T10:37:40.495Z,34.01
2018-02-25T10:38:40.490Z,33.54
2018-02-25T10:39:40.491Z,34.30
2018-02-25T10:40:40.481Z,33.82
2018-02-25T10:41:40.474Z,32.48
2018-02-25T10:42:40.675Z,33.23
2018-02-25T10:43:40.464Z,34.47
2018-02-25T10:44:40.464Z,34.01
2018-02-25T10:45:40.503Z,33.52
2018-02-25T10:46:40.448Z,33.23
2018-02-25T10:47:40.446Z,33.43
2018-02-25T10:48:40.446Z,32.86
2018-02-25T10:49:40.433Z,32.57
2018-02-25T10:50:40.429Z,32.57
2018-02-25T10:51:40.423Z,32.10
2018-02-25T10:52:40.417Z,32.10
2018-02-25T10:53:40.417Z,32.10
2018-02-25T10:54:40.406Z,33.14
2018-02-25T10:55:40.403Z,34.09
2018-02-25T10:56:40.464Z,34.19
2018-02-25T10:57:40.388Z,34.11
2018-02-25T10:58:40.386Z,33.44
2018-02-25T10:59:40.581Z,33.81
2018-02-25T11:00:40.372Z,34.30
2018-02-25T11:01:40.373Z,33.73
2018-02-25T11:02:40.566Z,34.20
2018-02-25T11:03:40.357Z,33.63
2018-02-25T11:04:40.353Z,33.06
2018-02-25T11:05:40.552Z,33.63
2018-02-25T11:06:40.343Z,33.06
2018-02-25T11:07:40.336Z,32.78
2018-02-25T11:08:40.330Z,32.21
2018-02-25T11:09:40.325Z,32.32
2018-02-25T11:10:40.322Z,32.21
2018-02-25T11:11:40.315Z,31.64
2018-02-25T11:12:40.312Z,32.21
2018-02-25T11:13:40.329Z,32.87
2018-02-25T11:14:40.300Z,33.27
2018-02-25T11:15:40.295Z,32.60
2018-02-25T11:16:40.355Z,32.32
2018-02-25T11:17:40.285Z,31.75
2018-02-25T11:18:40.280Z,31.75
2018-02-25T11:19:40.284Z,32.02
2018-02-25T11:20:40.274Z,31.64
2018-02-25T11:21:40.266Z,32.23
2018-02-25T11:22:40.259Z,31.95
2018-02-25T11:23:40.254Z,31.18
2018-02-25T11:24:40.249Z,30.33
2018-02-25T11:25:40.242Z,30.03
2018-02-25T11:26:40.238Z,31.07
2018-02-25T11:27:40.435Z,30.98
2018-02-25T11:28:40.226Z,30.79
2018-02-25T11:29:40.252Z,31.07
2018-02-25T11:30:40.259Z,31.07
2018-02-25T11:31:40.291Z,31.07
2018-02-25T11:32:40.205Z,31.74
2018-02-25T11:33:40.193Z,31.18
2018-02-25T11:34:40.189Z,30.52
2018-02-25T11:35:40.181Z,30.43
2018-02-25T11:36:40.201Z,30.33
2018-02-25T11:37:40.167Z,29.95
2018-02-25T11:38:40.161Z,30.43
2018-02-25T11:39:40.154Z,30.03
2018-02-25T11:40:40.152Z,30.90
2018-02-25T11:41:40.221Z,30.71
2018-02-25T11:42:40.133Z,30.52
2018-02-25T11:43:40.127Z,30.14
2018-02-25T11:44:40.169Z,30.35
2018-02-25T11:45:40.112Z,30.06
2018-02-25T11:46:40.106Z,28.92
2018-02-25T11:47:40.108Z,28.07
2018-02-25T11:48:40.092Z,26.35
2018-02-25T11:49:40.087Z,27.28
2018-02-25T11:50:40.077Z,28.91
2018-02-25T11:51:40.069Z,29.57
2018-02-25T11:52:40.113Z,29.95
2018-02-25T11:53:40.054Z,29.00
2018-02-25T11:54:40.046Z,30.06
2018-02-25T11:55:40.095Z,29.78
2018-02-25T11:56:40.031Z,29.78
2018-02-25T11:57:40.026Z,29.11
2018-02-25T11:58:40.221Z,28.64
2018-02-25T11:59:40.009Z,27.22
2018-02-25T12:00:40.000Z,27.59
2018-02-25T12:01:39.990Z,27.50
2018-02-25T12:02:40.008Z,28.36
2018-02-25T12:03:39.979Z,28.07
2018-02-25T12:04:40.014Z,28.26
2018-02-25T12:05:39.960Z,28.17
2018-02-25T12:06:39.954Z,28.56
2018-02-25T12:07:39.948Z,27.23
2018-02-25T12:08:39.938Z,25.98
2018-02-25T12:09:39.933Z,25.60
2018-02-25T12:10:40.005Z,25.32
2018-02-25T12:11:39.912Z,25.70
2018-02-25T12:12:39.904Z,26.46
2018-02-25T12:13:39.928Z,27.51
2018-02-25T12:14:39.894Z,25.99
2018-02-25T12:15:39.879Z,26.18
2018-02-25T12:16:39.871Z,25.24
2018-02-25T12:17:39.862Z,25.43
2018-02-25T12:18:39.858Z,24.66
2018-02-25T12:19:39.849Z,24.94
2018-02-25T12:20:39.839Z,25.32
2018-02-25T12:21:39.833Z,26.57
2018-02-25T12:22:39.823Z,26.57
2018-02-25T12:23:39.813Z,26.29
2018-02-25T12:24:40.013Z,26.57
2018-02-25T12:25:39.796Z,26.86
2018-02-25T12:26:39.788Z,26.96
2018-02-25T12:27:39.830Z,25.35
2018-02-25T12:28:39.775Z,24.76
2018-02-25T12:29:39.767Z,25.43
2018-02-25T12:30:39.761Z,25.44
2018-02-25T12:31:39.747Z,25.44
2018-02-25T12:32:39.741Z,25.34
2018-02-25T12:33:39.735Z,26.18
2018-02-25T12:34:39.725Z,26.27
2018-02-25T12:35:39.788Z,27.12
2018-02-25T12:36:39.708Z,27.78
2018-02-25T12:37:39.699Z,27.50
2018-02-25T12:39:39.683Z,27.50
2018-02-25T12:40:39.676Z,27.22
2018-02-25T12:41:39.871Z,27.23
2018-02-25T12:42:39.659Z,27.33
2018-02-25T12:43:39.661Z,27.44
2018-02-25T12:44:39.650Z,26.96
2018-02-25T12:45:39.635Z,26.58
2018-02-25T12:46:39.629Z,25.82
2018-02-25T12:47:39.669Z,25.63
2018-02-25T12:48:39.614Z,24.58
2018-02-25T12:49:39.647Z,25.43
2018-02-25T12:50:39.595Z,25.32
2018-02-25T12:51:39.590Z,26.75
2018-02-25T12:53:39.572Z,26.29
2018-02-25T12:54:39.565Z,26.57
2018-02-25T12:55:39.599Z,26.66
2018-02-25T12:56:39.547Z,26.28
2018-02-25T12:57:39.538Z,25.71